createdAt,value
2019-02-21T16:46:58.433Z,44.63
2019-02-21T16:50:42.601Z,39.20
2019-02-21T16:53:09.289Z,44.30
2019-02-21T16:55:35.885Z,44.60
2019-02-21T16:58:02.457Z,45.98
2019-02-21T17:00:38.903Z,38.13
2019-02-21T17:02:57.341Z,49.23
2019-02-21T17:05:24.020Z,44.73
2019-02-21T17:07:50.604Z,52.83
2019-02-21T17:10:17.231Z,47.85
2019-02-21T17:12:43.852Z,43.63
2019-02-21T17:15:10.433Z,46.65
2019-02-21T17:17:37.066Z,50.12
2019-02-21T17:20:03.639Z,52.38
2019-02-21T17:22:30.216Z,48.63
2019-02-21T17:24:56.794Z,52.10
2019-02-21T17:27:23.371Z,46.20
2019-02-21T17:29:50.696Z,48.42
2019-02-21T17:32:17.277Z,48.52
2019-02-21T17:34:43.852Z,51.08
2019-02-21T17:37:10.438Z,54.48
2019-02-21T17:39:37.006Z,50.95
2019-02-21T17:42:03.581Z,49.05
2019-02-21T17:44:31.823Z,49.45
2019-02-21T17:46:58.646Z,49.15
2019-02-21T17:49:25.293Z,65.50
2019-02-21T17:51:53.766Z,48.52
2019-02-21T17:54:20.225Z,49.63
2019-02-21T17:56:46.826Z,53.28
2019-02-21T17:59:13.532Z,54.42
2019-02-21T18:01:40.108Z,46.65
2019-02-21T18:04:06.689Z,51.42
2019-02-21T18:06:33.269Z,40.45
2019-02-21T18:08:59.849Z,49.60
2019-02-21T18:11:26.518Z,47.33
2019-02-21T18:13:53.114Z,45.65
2019-02-21T18:16:19.694Z,45.08
2019-02-21T18:18:46.272Z,52.98
2019-02-21T18:21:12.854Z,38.35
2019-02-21T18:23:39.593Z,40.00
2019-02-21T18:26:06.183Z,38.55
2019-02-21T18:28:32.752Z,36.68
2019-02-21T18:30:59.338Z,43.52
2019-02-21T18:33:25.918Z,35.60
2019-02-21T18:35:52.689Z,38.40
2019-02-21T18:38:19.264Z,38.78
2019-02-21T18:40:45.833Z,46.10
2019-02-21T18:43:12.406Z,49.63
2019-02-21T18:45:38.979Z,41.80
2019-02-21T18:48:05.601Z,44.65
2019-02-21T18:50:38.050Z,42.10
2019-02-21T18:53:00.475Z,38.17
2019-02-21T18:55:27.129Z,35.68
2019-02-21T18:57:53.717Z,32.65
2019-02-21T19:00:20.299Z,32.08
2019-02-21T19:02:46.921Z,29.77
2019-02-21T19:05:13.500Z,31.75
2019-02-21T19:07:40.070Z,31.23
2019-02-21T19:10:06.682Z,28.40
2019-02-21T19:12:33.260Z,23.10
2019-02-21T19:14:59.918Z,22.67
2019-02-21T19:17:26.501Z,21.93
2019-02-21T19:19:53.149Z,26.95
2019-02-21T19:22:19.775Z,23.40
2019-02-21T19:24:46.353Z,25.65
2019-02-21T19:27:12.928Z,24.02
2019-02-21T19:29:39.507Z,18.90
2019-02-21T19:32:06.083Z,18.25
2019-02-21T19:34:32.807Z,19.75
2019-02-21T19:36:59.388Z,25.25
2019-02-21T19:39:25.952Z,19.17
2019-02-21T19:41:52.627Z,20.97
2019-02-21T19:44:19.201Z,17.65
2019-02-21T19:46:45.837Z,20.15
2019-02-21T19:49:12.413Z,19.05
2019-02-21T19:51:38.982Z,16.05
2019-02-21T19:54:05.567Z,16.02
2019-02-21T19:56:32.145Z,18.48
2019-02-21T19:58:58.877Z,19.80
2019-02-21T20:01:25.536Z,18.52
2019-02-21T20:03:52.140Z,16.37
2019-02-21T20:06:19.333Z,19.85
2019-02-21T20:08:46.021Z,13.58
2019-02-21T20:11:12.643Z,17.23
2019-02-21T20:13:39.222Z,17.02
2019-02-21T20:16:05.804Z,16.55
2019-02-21T20:18:32.380Z,13.15
2019-02-21T20:20:58.951Z,18.23
2019-02-21T20:23:25.521Z,15.15
2019-02-21T20:25:52.099Z,12.75
2019-02-21T20:28:18.775Z,13.62
2019-02-21T20:30:45.383Z,20.55
2019-02-21T20:33:11.945Z,12.77
2019-02-21T20:35:38.525Z,14.70
2019-02-21T20:38:05.104Z,14.83
2019-02-21T20:40:31.727Z,15.10
2019-02-21T20:42:58.306Z,15.45
2019-02-21T20:45:24.949Z,14.50
2019-02-21T20:47:51.538Z,17.32
2019-02-21T20:50:18.113Z,15.90
2019-02-21T20:52:44.730Z,15.38
2019-02-21T20:55:11.371Z,19.92
2019-02-21T20:57:38.045Z,15.38
2019-02-21T21:00:04.639Z,16.62
2019-02-21T21:02:31.270Z,14.83
2019-02-21T21:04:57.851Z,15.28
2019-02-21T21:07:25.318Z,15.80
2019-02-21T21:09:52.170Z,14.95
2019-02-21T21:12:18.799Z,19.73
2019-02-21T21:14:47.443Z,19.00
2019-02-21T21:17:14.058Z,17.30
2019-02-21T21:19:40.641Z,20.37
2019-02-21T21:22:07.217Z,26.20
2019-02-21T21:24:33.794Z,20.30
2019-02-21T21:27:00.456Z,21.23
2019-02-21T21:29:27.033Z,18.67
2019-02-21T21:31:53.611Z,17.30
2019-02-21T21:34:20.191Z,21.37
2019-02-21T21:36:46.791Z,17.60
2019-02-21T21:39:13.424Z,20.87
2019-02-21T21:41:40.004Z,16.00
2019-02-21T21:44:06.610Z,17.62
2019-02-21T21:46:33.203Z,19.62
2019-02-21T21:48:59.849Z,18.60
2019-02-21T21:51:27.379Z,19.15
2019-02-21T21:53:53.987Z,20.32
2019-02-21T21:56:21.674Z,16.32
2019-02-21T21:58:48.465Z,21.73
2019-02-21T22:01:15.039Z,20.88
2019-02-21T22:03:41.650Z,19.73
2019-02-21T22:06:08.222Z,18.35
2019-02-21T22:08:35.621Z,15.85
2019-02-21T22:11:02.195Z,21.00
2019-02-21T22:13:28.802Z,18.67
2019-02-21T22:15:55.379Z,18.85
2019-02-21T22:18:21.976Z,18.93
2019-02-21T22:20:48.562Z,16.80
2019-02-21T22:23:15.129Z,17.80
2019-02-21T22:25:41.700Z,19.63
2019-02-21T22:28:08.277Z,21.77
2019-02-21T22:30:34.858Z,19.20
2019-02-21T22:33:01.435Z,19.92
2019-02-21T22:35:28.007Z,19.25
2019-02-21T22:37:54.611Z,19.50
2019-02-21T22:40:21.239Z,23.80
2019-02-21T22:42:47.833Z,19.47
2019-02-21T22:45:14.413Z,20.40
2019-02-21T22:47:41.010Z,18.62
2019-02-21T22:50:07.576Z,19.33
2019-02-21T22:52:34.142Z,20.68
2019-02-21T22:55:09.325Z,22.65
2019-02-21T22:57:29.097Z,18.97
2019-02-21T22:59:55.678Z,22.30
2019-02-21T23:02:22.250Z,18.62
2019-02-21T23:04:48.840Z,21.77
2019-02-21T23:07:15.446Z,21.30
2019-02-21T23:09:42.040Z,24.98
2019-02-21T23:12:08.598Z,20.70
2019-02-21T23:14:35.223Z,22.42
2019-02-21T23:17:01.786Z,20.62
2019-02-21T23:19:28.373Z,19.40
2019-02-21T23:21:54.973Z,24.18
2019-02-21T23:24:21.552Z,21.93
2019-02-21T23:26:48.148Z,21.27
2019-02-21T23:29:14.714Z,21.90
2019-02-21T23:31:41.319Z,28.98
2019-02-21T23:34:07.888Z,21.70
2019-02-21T23:36:34.494Z,22.70
2019-02-21T23:39:01.075Z,28.00
2019-02-21T23:41:27.674Z,26.65
2019-02-21T23:43:54.247Z,22.95
2019-02-21T23:46:20.863Z,28.35
2019-02-21T23:48:47.435Z,27.67
2019-02-21T23:51:14.036Z,26.48
2019-02-21T23:53:40.617Z,24.50
2019-02-21T23:56:07.220Z,27.55
2019-02-21T23:58:33.790Z,25.62
